Time;durP1;ratioP1;P1;durP2;ratioP2;P2;SDS_P1;SDS_P2;PMS_P1;PMS_P2;Temp;Humidity;BMP_temperature;BMP_pressure;BME280_temperature;BME280_humidity;BME280_pressure;Samples;Min_cycle;Max_cycle;Signal;HPM_P1;HPM_P2
2022/05/28 00:01:08;;;;;;;2.30;0.70;;;;;;;8.14;93.72;100938.29;106184;1280;75080;-84
2022/05/28 00:03:36;;;;;;;2.30;0.60;;;;;;;8.14;94.23;100935.95;106313;1279;71170;-84
2022/05/28 00:06:12;;;;;;;1.50;0.40;;;;;;;8.14;94.90;100934.41;106276;1279;73332;-85
2022/05/28 00:08:40;;;;;;;3.80;0.50;;;;;;;8.15;95.72;100931.81;105771;1281;62015;-85
2022/05/28 00:11:18;;;;;;;2.40;0.80;;;;;;;8.17;96.03;100929.86;106011;1279;61303;-85
2022/05/28 00:13:45;;;;;;;4.70;1.00;;;;;;;8.19;96.17;100928.48;105942;1279;76337;-85
2022/05/28 00:16:13;;;;;;;1.60;1.10;;;;;;;8.20;96.68;100929.96;106224;1279;71990;-84
2022/05/28 00:18:41;;;;;;;4.70;0.50;;;;;;;8.21;97.12;100923.54;106090;1280;72052;-85
2022/05/28 00:21:10;;;;;;;5.90;1.00;;;;;;;8.23;97.97;100919.61;106084;1280;62603;-85
2022/05/28 00:23:38;;;;;;;5.60;0.80;;;;;;;8.27;97.80;100916.61;106062;1280;61190;-85
2022/05/28 00:26:06;;;;;;;2.60;0.70;;;;;;;8.30;97.98;100912.67;106147;1279;76055;-84
2022/05/28 00:28:33;;;;;;;4.50;0.80;;;;;;;8.35;97.70;100908.47;106031;1281;72463;-84
2022/05/28 00:31:00;;;;;;;5.10;1.00;;;;;;;8.43;97.23;100909.48;105931;1280;74152;-85
2022/05/28 00:33:30;;;;;;;8.30;1.00;;;;;;;8.50;96.73;100899.05;105721;1280;62328;-85
2022/05/28 00:35:57;;;;;;;5.30;1.10;;;;;;;8.56;96.90;100902.33;105974;1279;61687;-84
2022/05/28 00:38:24;;;;;;;9.90;1.10;;;;;;;8.65;95.73;100897.23;105858;1279;76341;-85
2022/05/28 00:40:58;;;;;;;9.20;1.30;;;;;;;8.73;94.94;100899.59;105873;1279;71742;-85
2022/05/28 00:43:27;;;;;;;6.50;1.30;;;;;;;8.79;94.67;100892.42;105592;1280;73064;-84
2022/05/28 00:46:07;;;;;;;6.00;1.40;;;;;;;8.85;93.45;100894.14;106408;1279;61748;-86
2022/05/28 00:48:37;;;;;;;6.10;1.00;;;;;;;8.90;92.71;100901.33;106018;1279;61233;-85
2022/05/28 00:51:15;;;;;;;2.70;0.80;;;;;;;8.91;92.89;100900.16;105939;1279;75064;-84
2022/05/28 00:53:42;;;;;;;5.60;1.10;;;;;;;8.89;92.98;100906.06;105972;1279;71562;-85
2022/05/28 00:56:09;;;;;;;6.10;1.10;;;;;;;8.85;93.63;100902.61;105781;1281;73148;-84
2022/05/28 00:58:36;;;;;;;4.70;1.30;;;;;;;8.80;94.22;100897.32;105861;1279;62492;-84
2022/05/28 01:01:08;;;;;;;9.10;1.50;;;;;;;8.76;93.92;100896.15;105866;1279;59841;-84
2022/05/28 01:03:53;;;;;;;5.70;1.20;;;;;;;8.71;94.31;100891.27;107011;1279;75650;-84
2022/05/28 01:06:33;;;;;;;3.60;1.30;;;;;;;8.68;93.91;100891.31;106969;1280;70287;-85
2022/05/28 01:09:09;;;;;;;8.10;1.50;;;;;;;8.69;93.55;100893.33;106061;1279;74049;-84
2022/05/28 01:11:44;;;;;;;3.80;0.80;;;;;;;8.70;94.53;100893.60;105876;1279;61285;-84
2022/05/28 01:14:29;;;;;;;6.20;1.30;;;;;;;8.70;95.12;100884.95;106102;1279;61189;-85
2022/05/28 01:17:00;;;;;;;5.10;1.20;;;;;;;8.72;94.90;100889.83;106496;1279;75955;-87
2022/05/28 01:19:47;;;;;;;4.70;1.00;;;;;;;8.74;94.80;100884.59;105881;1279;71357;-84
2022/05/28 01:22:19;;;;;;;7.90;1.60;;;;;;;8.79;94.81;100889.23;106066;1279;73683;-84
2022/05/28 01:25:08;;;;;;;14.90;2.10;;;;;;;8.80;95.90;100895.51;105969;1279;61292;-83
2022/05/28 01:27:42;;;;;;;10.90;1.30;;;;;;;8.73;97.57;100911.34;105854;1281;61472;-82
2022/05/28 01:30:13;;;;;;;7.80;1.10;;;;;;;8.58;99.95;100904.27;106269;1281;75563;-82
2022/05/28 01:32:44;;;;;;;1.60;0.70;;;;;;;8.36;100.00;100919.38;106327;1280;70909;-82
2022/05/28 01:35:13;;;;;;;4.00;0.90;;;;;;;7.98;99.55;100908.13;105796;1281;72901;-84
2022/05/28 01:37:39;;;;;;;1.00;0.40;;;;;;;7.73;100.00;100898.64;106571;1280;61515;-85
2022/05/28 01:40:09;;;;;;;7.30;1.10;;;;;;;7.56;100.00;100892.25;105844;1279;61134;-85
2022/05/28 01:42:42;;;;;;;1.90;0.40;;;;;;;7.46;100.00;100894.26;105940;1279;75061;-84
2022/05/28 01:45:12;;;;;;;5.10;0.70;;;;;;;7.37;100.00;100875.27;105784;1279;72411;-84
2022/05/28 01:47:43;;;;;;;7.50;0.90;;;;;;;7.31;100.00;100872.81;105687;1280;71963;-83
2022/05/28 01:50:13;;;;;;;5.20;1.10;;;;;;;7.29;100.00;100867.43;106070;1279;61452;-84
2022/05/28 01:52:42;;;;;;;6.40;1.00;;;;;;;7.28;100.00;100861.88;105926;1279;61240;-84
2022/05/28 01:55:13;;;;;;;5.70;0.80;;;;;;;7.29;100.00;100857.88;105936;1280;74953;-84
2022/05/28 01:57:40;;;;;;;4.20;1.20;;;;;;;7.33;100.00;100854.52;105785;1279;71778;-85
2022/05/28 02:00:09;;;;;;;3.80;0.90;;;;;;;7.36;100.00;100858.44;105775;1281;74032;-85
2022/05/28 02:02:37;;;;;;;4.70;1.50;;;;;;;7.40;100.00;100861.25;106561;1280;61378;-84
2022/05/28 02:05:05;;;;;;;6.80;1.30;;;;;;;7.42;100.00;100859.32;105838;1279;61278;-83
2022/05/28 02:07:32;;;;;;;2.90;0.80;;;;;;;7.44;100.00;100865.83;105895;1279;76621;-85
2022/05/28 02:10:04;;;;;;;6.10;1.00;;;;;;;7.44;100.00;100866.48;105650;1282;72575;-84
2022/05/28 02:12:44;;;;;;;4.40;1.00;;;;;;;7.45;100.00;100866.63;105797;1280;72100;-83
2022/05/28 02:15:46;;;;;;;5.90;1.40;;;;;;;7.46;100.00;100871.55;105927;1280;61290;-84
2022/05/28 02:18:31;;;;;;;3.90;1.20;;;;;;;7.53;100.00;100874.78;105767;1279;59784;-83
2022/05/28 02:21:18;;;;;;;5.80;1.80;;;;;;;7.58;100.00;100876.03;106432;1279;75670;-84
2022/05/28 02:23:51;;;;;;;5.30;1.10;;;;;;;7.63;100.00;100870.96;106639;1279;71715;-84
2022/05/28 02:26:25;;;;;;;4.10;0.90;;;;;;;7.67;100.00;100867.38;106778;1279;73285;-85
2022/05/28 02:28:52;;;;;;;4.10;1.30;;;;;;;7.71;100.00;100865.36;107239;1279;61226;-85
2022/05/28 02:31:30;;;;;;;4.90;1.70;;;;;;;7.74;100.00;100865.42;107273;1279;61747;-84
2022/05/28 02:33:59;;;;;;;2.90;0.60;;;;;;;7.76;100.00;100863.83;107318;1279;75182;-84
2022/05/28 02:36:28;;;;;;;4.90;1.00;;;;;;;7.79;100.00;100862.35;107498;1279;71480;-84
2022/05/28 02:38:56;;;;;;;4.90;0.80;;;;;;;7.81;100.00;100857.95;107498;1279;73064;-84
2022/05/28 02:41:23;;;;;;;7.30;1.50;;;;;;;7.85;100.00;100857.36;106930;1281;61260;-84
2022/05/28 02:43:50;;;;;;;3.70;0.90;;;;;;;7.87;100.00;100865.03;105972;1279;60882;-86
2022/05/28 02:46:16;;;;;;;5.70;1.30;;;;;;;7.89;100.00;100863.59;105837;1279;76011;-83
2022/05/28 02:48:45;;;;;;;8.30;1.20;;;;;;;7.92;100.00;100866.70;105960;1279;71395;-83
2022/05/28 02:51:15;;;;;;;4.70;1.50;;;;;;;7.91;100.00;100867.00;105898;1279;74219;-83
2022/05/28 02:53:41;;;;;;;5.80;1.00;;;;;;;7.91;100.00;100869.91;105780;1281;61534;-83
2022/05/28 02:56:09;;;;;;;4.20;1.20;;;;;;;7.91;100.00;100868.13;105943;1280;62214;-84
2022/05/28 02:58:37;;;;;;;2.90;1.00;;;;;;;7.92;100.00;100866.31;106060;1279;74827;-84
2022/05/28 03:01:28;;;;;;;2.80;1.20;;;;;;;7.91;100.00;100863.91;106150;1279;72985;-84
2022/05/28 03:03:56;;;;;;;7.10;1.30;;;;;;;7.90;100.00;100863.00;106063;1280;72948;-85
2022/05/28 03:06:23;;;;;;;3.50;1.00;;;;;;;7.88;100.00;100860.60;106192;1279;61283;-83
2022/05/28 03:08:49;;;;;;;6.10;0.90;;;;;;;7.85;100.00;100856.07;106012;1280;61201;-84
2022/05/28 03:11:16;;;;;;;6.80;1.30;;;;;;;7.82;100.00;100853.04;105696;1282;61404;-84
2022/05/28 03:13:44;;;;;;;6.50;1.60;;;;;;;7.81;100.00;100858.08;105839;1280;71320;-83
2022/05/28 03:16:11;;;;;;;7.50;1.50;;;;;;;7.80;100.00;100860.64;105948;1280;73007;-85
2022/05/28 03:18:38;;;;;;;2.70;0.80;;;;;;;7.80;100.00;100856.09;105927;1279;61965;-83
2022/05/28 03:21:06;;;;;;;2.50;1.10;;;;;;;7.79;100.00;100862.50;106005;1280;61277;-84
2022/05/28 03:23:33;;;;;;;8.10;1.80;;;;;;;7.78;100.00;100860.36;106002;1280;76636;-84
2022/05/28 03:26:15;;;;;;;4.80;1.40;;;;;;;7.76;100.00;100864.01;105880;1279;72416;-84
2022/05/28 03:28:43;;;;;;;3.40;0.90;;;;;;;7.76;100.00;100861.23;105916;1280;72951;-85
2022/05/28 03:31:09;;;;;;;3.80;1.30;;;;;;;7.74;100.00;100864.69;105856;1279;62413;-83
2022/05/28 03:33:36;;;;;;;8.10;1.10;;;;;;;7.75;100.00;100867.33;105828;1280;61249;-84
2022/05/28 03:36:07;;;;;;;5.00;1.40;;;;;;;7.75;100.00;100874.46;105928;1279;74647;-84
2022/05/28 03:38:34;;;;;;;3.70;1.00;;;;;;;7.77;100.00;100869.77;105991;1279;73166;-83
2022/05/28 03:41:00;;;;;;;3.50;1.30;;;;;;;7.79;100.00;100877.89;105467;1281;73052;-84
2022/05/28 03:43:33;;;;;;;5.80;0.80;;;;;;;7.80;100.00;100872.10;105950;1280;61469;-84
2022/05/28 03:46:00;;;;;;;8.40;1.70;;;;;;;7.81;100.00;100868.73;105960;1280;61276;-85
2022/05/28 03:48:28;;;;;;;6.90;1.30;;;;;;;7.81;100.00;100873.63;106064;1280;74260;-85
2022/05/28 03:50:55;;;;;;;7.80;1.20;;;;;;;7.80;100.00;100876.30;105856;1280;71465;-85
2022/05/28 03:53:22;;;;;;;3.80;1.00;;;;;;;7.80;100.00;100880.40;106905;1280;74370;-85
2022/05/28 03:55:49;;;;;;;5.00;0.90;;;;;;;7.80;100.00;100886.88;106723;1279;61725;-85
2022/05/28 03:58:15;;;;;;;6.70;1.30;;;;;;;7.81;100.00;100890.89;106006;1279;61843;-84
2022/05/28 04:00:42;;;;;;;5.90;1.80;;;;;;;7.81;100.00;100882.09;105871;1279;74976;-83
2022/05/28 04:03:09;;;;;;;5.80;1.30;;;;;;;7.81;100.00;100888.18;105808;1280;72417;-84
2022/05/28 04:05:38;;;;;;;9.30;1.20;;;;;;;7.84;100.00;100893.58;105908;1279;74250;-82
2022/05/28 04:08:06;;;;;;;5.00;1.10;;;;;;;7.84;100.00;100894.91;105721;1280;62919;-84
2022/05/28 04:10:32;;;;;;;9.40;1.70;;;;;;;7.86;100.00;100890.73;105692;1282;61809;-83
2022/05/28 04:12:59;;;;;;;3.70;1.10;;;;;;;7.87;100.00;100890.39;105711;1281;75385;-84
2022/05/28 04:15:28;;;;;;;5.60;1.50;;;;;;;7.89;100.00;100897.27;105970;1279;61283;-84
2022/05/28 04:17:55;;;;;;;6.30;1.40;;;;;;;7.91;100.00;100895.98;105544;1281;72840;-83
2022/05/28 04:20:22;;;;;;;11.80;1.70;;;;;;;7.95;100.00;100899.52;105793;1280;61396;-85
2022/05/28 04:22:49;;;;;;;6.80;1.70;;;;;;;8.00;100.00;100898.14;105774;1281;61385;-83
2022/05/28 04:25:15;;;;;;;8.10;1.30;;;;;;;8.04;100.00;100905.97;105838;1279;75160;-83
2022/05/28 04:27:43;;;;;;;7.90;1.40;;;;;;;8.09;100.00;100897.55;105853;1279;71381;-84
2022/05/28 04:30:10;;;;;;;4.90;1.10;;;;;;;8.10;100.00;100897.92;105883;1280;74216;-83
2022/05/28 04:32:36;;;;;;;4.20;1.20;;;;;;;8.10;100.00;100893.93;105905;1279;61507;-83
2022/05/28 04:35:03;;;;;;;7.80;1.20;;;;;;;8.08;100.00;100898.15;105754;1280;61432;-83
2022/05/28 04:37:30;;;;;;;4.60;1.10;;;;;;;8.07;100.00;100901.94;105866;1280;75402;-83
2022/05/28 04:39:56;;;;;;;3.40;1.20;;;;;;;8.07;100.00;100904.94;105533;1281;70436;-87
2022/05/28 04:42:23;;;;;;;9.90;1.60;;;;;;;8.08;100.00;100902.60;105555;1281;61227;-85
2022/05/28 04:44:50;;;;;;;6.80;1.40;;;;;;;8.08;100.00;100899.44;106004;1280;62898;-85
2022/05/28 04:47:18;;;;;;;6.90;1.40;;;;;;;8.08;100.00;100901.73;106386;1281;61306;-83
2022/05/28 04:49:45;;;;;;;7.60;2.30;;;;;;;8.10;100.00;100898.02;107541;1281;59174;-84
2022/05/28 04:52:12;;;;;;;7.20;1.70;;;;;;;8.14;100.00;100896.50;107520;1280;60688;-85
2022/05/28 04:54:38;;;;;;;10.90;1.60;;;;;;;8.19;100.00;100902.36;107742;1279;73349;-83
2022/05/28 04:57:06;;;;;;;7.20;1.30;;;;;;;8.26;100.00;100899.63;105963;1281;61420;-85
2022/05/28 04:59:32;;;;;;;5.80;1.20;;;;;;;8.32;100.00;100900.73;105953;1281;60437;-83
2022/05/28 05:01:59;;;;;;;4.10;1.00;;;;;;;8.38;99.82;100908.73;105818;1280;77855;-83
2022/05/28 05:04:25;;;;;;;7.80;1.60;;;;;;;8.45;99.22;100906.32;105692;1280;61132;-84
2022/05/28 05:06:52;;;;;;;9.90;1.80;;;;;;;8.52;98.32;100909.66;105781;1280;61402;-83
2022/05/28 05:09:19;;;;;;;8.40;1.90;;;;;;;8.59;98.39;100896.30;105817;1281;62671;-83
2022/05/28 05:11:45;;;;;;;6.50;1.40;;;;;;;8.64;97.70;100909.33;105880;1280;61333;-83
2022/05/28 05:14:12;;;;;;;9.80;1.60;;;;;;;8.68;97.45;100903.31;105760;1281;61252;-83
2022/05/28 05:16:39;;;;;;;2.80;0.90;;;;;;;8.67;97.02;100900.71;105901;1280;70157;-83
2022/05/28 05:19:05;;;;;;;12.60;1.40;;;;;;;8.69;96.54;100903.91;105836;1280;74222;-83
2022/05/28 05:21:32;;;;;;;4.90;1.20;;;;;;;8.74;95.86;100915.48;105817;1280;61531;-84
2022/05/28 05:23:59;;;;;;;3.60;1.10;;;;;;;8.82;95.55;100911.89;105674;1281;61287;-84
2022/05/28 05:26:25;;;;;;;5.20;1.00;;;;;;;8.89;95.35;100913.93;105984;1281;76048;-84
2022/05/28 05:28:52;;;;;;;4.90;0.90;;;;;;;8.96;94.72;100917.08;105940;1281;61217;-83
2022/05/28 05:31:18;;;;;;;4.80;1.00;;;;;;;9.04;94.64;100914.62;105993;1280;74241;-83
2022/05/28 05:33:45;;;;;;;4.80;1.20;;;;;;;9.09;93.86;100918.45;105913;1280;62250;-84
2022/05/28 05:36:12;;;;;;;4.10;1.60;;;;;;;9.16;93.08;100925.13;105635;1283;61407;-84
2022/05/28 05:38:40;;;;;;;5.30;1.30;;;;;;;9.24;91.95;100918.64;105764;1281;75075;-83
2022/05/28 05:41:06;;;;;;;9.40;0.90;;;;;;;9.31;91.63;100930.41;105631;1281;72405;-83
2022/05/28 05:43:33;;;;;;;7.70;1.20;;;;;;;9.38;91.31;100923.30;105488;1281;61341;-84
2022/05/28 05:46:02;;;;;;;4.00;1.50;;;;;;;9.44;90.28;100924.12;106050;1281;63038;-83
2022/05/28 05:48:32;;;;;;;6.60;1.10;;;;;;;9.53;90.22;100926.22;105932;1281;61407;-83
2022/05/28 05:51:06;;;;;;;6.90;1.40;;;;;;;9.58;89.28;100931.07;106098;1281;75771;-83
2022/05/28 05:53:33;;;;;;;5.10;1.60;;;;;;;9.65;88.68;100930.58;105722;1281;72938;-83
2022/05/28 05:55:59;;;;;;;7.30;1.60;;;;;;;9.68;86.94;100939.48;105990;1281;61255;-83
2022/05/28 05:58:34;;;;;;;6.00;1.10;;;;;;;9.73;87.15;100927.08;105541;1284;61148;-84
2022/05/28 06:01:08;;;;;;;7.40;1.10;;;;;;;9.79;87.65;100933.30;105637;1281;61266;-82
2022/05/28 06:03:36;;;;;;;;;;;;;;;9.81;86.95;100939.48;105958;1281;75013;-83
2022/05/28 06:06:06;;;;;;;5.20;1.20;;;;;;;9.83;86.72;100945.52;106026;1281;72035;-84
2022/05/28 06:08:34;;;;;;;4.60;1.00;;;;;;;9.88;86.76;100949.70;106133;1281;72716;-83
2022/05/28 06:11:00;;;;;;;6.00;1.40;;;;;;;9.97;86.37;100942.58;106024;1281;61232;-84
2022/05/28 06:13:27;;;;;;;7.40;1.30;;;;;;;10.05;85.59;100950.52;106279;1281;61302;-84
2022/05/28 06:15:53;;;;;;;6.10;1.60;;;;;;;10.08;85.45;100935.67;106730;1280;60125;-84
2022/05/28 06:18:20;;;;;;;9.90;1.50;;;;;;;10.10;83.91;100949.08;107249;1284;61306;-84
2022/05/28 06:20:49;;;;;;;3.10;0.70;;;;;;;10.12;84.28;100943.34;105846;1281;59716;-83
2022/05/28 06:23:17;;;;;;;6.10;1.50;;;;;;;10.17;83.88;100941.09;105831;1280;61391;-84
2022/05/28 06:25:44;;;;;;;7.70;1.40;;;;;;;10.20;82.02;100937.35;105714;1281;60496;-83
2022/05/28 06:28:11;;;;;;;6.50;1.00;;;;;;;10.25;81.54;100935.77;105748;1281;76196;-85
2022/05/28 06:30:39;;;;;;;2.20;0.80;;;;;;;10.31;81.93;100935.39;105889;1280;72306;-84
2022/05/28 06:33:06;;;;;;;6.70;1.20;;;;;;;10.31;80.72;100945.48;105987;1280;74444;-85
2022/05/28 06:35:33;;;;;;;3.00;1.20;;;;;;;10.33;81.13;100938.13;105580;1281;63307;-85
2022/05/28 06:37:59;;;;;;;9.90;1.20;;;;;;;10.33;80.83;100946.25;105935;1281;61321;-84
2022/05/28 06:40:27;;;;;;;2.60;0.80;;;;;;;10.41;81.25;100945.48;105935;1280;76329;-84
2022/05/28 06:42:56;;;;;;;4.70;0.90;;;;;;;10.48;80.44;100952.77;106390;1281;71605;-84
2022/05/28 06:45:24;;;;;;;5.70;1.00;;;;;;;10.54;79.99;100951.36;107551;1281;72641;-85
2022/05/28 06:47:51;;;;;;;6.60;1.20;;;;;;;10.54;79.85;100949.93;105949;1281;62235;-86
2022/05/28 06:53:09;;;;;;;5.30;1.20;;;;;;;10.49;81.26;100949.81;105899;1280;76194;-88
2022/05/28 06:55:37;;;;;;;6.90;1.00;;;;;;;10.46;82.59;100945.45;105887;1281;72401;-84
2022/05/28 06:58:06;;;;;;;8.00;1.00;;;;;;;10.43;83.30;100948.70;105859;1281;71769;-84
2022/05/28 07:00:34;;;;;;;7.50;1.30;;;;;;;10.31;83.48;100953.77;105837;1281;63157;-85
2022/05/28 07:03:02;;;;;;;4.50;1.20;;;;;;;10.19;84.51;100953.05;106082;1280;61958;-84
2022/05/28 07:05:29;;;;;;;5.50;1.30;;;;;;;10.10;85.40;100957.09;106008;1281;74684;-85
2022/05/28 07:07:56;;;;;;;5.40;0.90;;;;;;;9.99;84.57;100953.94;105908;1281;61288;-85
2022/05/28 07:10:23;;;;;;;2.80;0.90;;;;;;;10.00;83.62;100957.59;105809;1281;72976;-85
2022/05/28 07:12:50;;;;;;;6.30;1.60;;;;;;;10.05;82.72;100960.77;105797;1280;61923;-86
2022/05/28 07:15:17;;;;;;;8.00;1.90;;;;;;;10.15;81.44;100968.50;105985;1281;61301;-83
2022/05/28 07:17:43;;;;;;;10.60;2.80;;;;;;;10.33;80.45;100969.20;106009;1281;76220;-84
2022/05/28 07:20:13;;;;;;;6.90;1.10;;;;;;;10.52;79.88;100978.52;105998;1280;71521;-84
2022/05/28 07:22:40;;;;;;;6.10;1.20;;;;;;;10.67;77.95;100961.13;105971;1281;74007;-84
2022/05/28 07:25:08;;;;;;;5.80;1.10;;;;;;;10.87;78.51;100955.52;105801;1281;63227;-84
2022/05/28 07:27:35;;;;;;;7.20;1.70;;;;;;;11.03;76.30;100955.90;105799;1281;61270;-84
2022/05/28 07:30:03;;;;;;;3.10;1.00;;;;;;;11.16;76.72;100953.05;106075;1280;74556;-84
2022/05/28 07:32:30;;;;;;;6.50;1.70;;;;;;;11.30;75.91;100960.07;106081;1279;71776;-83
2022/05/28 07:34:58;;;;;;;4.80;1.30;;;;;;;11.36;74.22;100958.20;105991;1281;74066;-83
2022/05/28 07:37:29;;;;;;;10.30;1.30;;;;;;;11.39;74.38;100971.16;105970;1281;62075;-84
2022/05/28 07:39:59;;;;;;;8.00;2.50;;;;;;;11.45;73.83;100958.09;105833;1281;61199;-84
2022/05/28 07:42:30;;;;;;;4.20;1.30;;;;;;;11.49;74.19;100962.65;105896;1280;76217;-84
2022/05/28 07:44:59;;;;;;;7.00;1.00;;;;;;;11.40;72.20;100961.83;105950;1280;72546;-83
2022/05/28 07:47:25;;;;;;;6.40;1.20;;;;;;;11.31;71.64;100971.67;105941;1281;61321;-83
2022/05/28 07:49:55;;;;;;;4.60;1.00;;;;;;;11.26;72.76;100970.29;105964;1279;61363;-84
2022/05/28 07:52:21;;;;;;;5.40;0.90;;;;;;;11.27;72.44;100980.81;105907;1279;61252;-85
2022/05/28 07:54:51;;;;;;;6.20;1.60;;;;;;;11.35;72.99;100964.67;106113;1279;60024;-83
2022/05/28 07:57:20;;;;;;;7.80;1.20;;;;;;;11.51;71.47;100966.86;105987;1280;70786;-83
2022/05/28 07:59:46;;;;;;;2.50;0.80;;;;;;;11.66;70.11;100975.55;106069;1280;74355;-82
2022/05/28 08:02:13;;;;;;;11.50;1.80;;;;;;;11.70;69.81;100967.63;105788;1281;59974;-84
2022/05/28 08:04:39;;;;;;;11.20;1.60;;;;;;;11.63;70.23;100969.67;105793;1280;62714;-84
2022/05/28 08:07:06;;;;;;;6.70;1.40;;;;;;;11.55;70.59;100970.25;105944;1279;61300;-85
2022/05/28 08:09:32;;;;;;;6.80;1.30;;;;;;;11.43;71.81;100981.90;105890;1280;61293;-84
2022/05/28 08:11:59;;;;;;;6.30;1.60;;;;;;;11.35;74.38;100975.54;105930;1281;61278;-84
2022/05/28 08:14:26;;;;;;;8.50;2.10;;;;;;;11.36;76.18;100973.58;105994;1280;61199;-85
2022/05/28 08:16:52;;;;;;;8.00;1.80;;;;;;;11.35;76.31;100971.95;105822;1281;62808;-84
2022/05/28 08:19:19;;;;;;;2.60;1.10;;;;;;;11.35;74.95;100968.56;105928;1279;76137;-85
2022/05/28 08:24:30;;;;;;;7.00;1.70;;;;;;;11.56;74.48;100972.64;106067;1280;74012;-84
2022/05/28 08:26:58;;;;;;;8.80;1.50;;;;;;;11.61;74.00;100977.39;106001;1280;61284;-84
2022/05/28 08:29:25;;;;;;;8.80;1.20;;;;;;;11.68;73.55;100970.17;106277;1280;60983;-85
2022/05/28 08:31:52;;;;;;;4.30;1.30;;;;;;;11.86;73.31;100967.55;106120;1280;76205;-85
2022/05/28 08:34:19;;;;;;;6.00;1.20;;;;;;;12.10;73.53;100965.77;105961;1281;71089;-85
2022/05/28 08:36:45;;;;;;;5.80;1.50;;;;;;;12.20;72.35;100967.01;106156;1279;62093;-85
2022/05/28 08:39:14;;;;;;;6.80;1.10;;;;;;;12.31;72.37;100965.27;106204;1280;62719;-85
2022/05/28 08:41:52;;;;;;;3.70;1.40;;;;;;;12.36;71.12;100962.27;105937;1279;60660;-86
2022/05/28 08:44:25;;;;;;;5.20;1.80;;;;;;;12.43;71.29;100958.36;105817;1281;76241;-85
2022/05/28 08:47:17;;;;;;;8.70;1.10;;;;;;;12.49;69.99;100959.38;105886;1279;71372;-85
2022/05/28 08:49:50;;;;;;;6.30;1.40;;;;;;;12.60;68.71;100959.67;105872;1280;73714;-86
2022/05/28 08:52:25;;;;;;;4.50;0.90;;;;;;;12.68;66.17;100970.67;105961;1279;63227;-85
2022/05/28 08:54:57;;;;;;;4.10;1.00;;;;;;;12.73;65.60;100958.86;105668;1281;61237;-86
2022/05/28 08:57:46;;;;;;;7.30;1.00;;;;;;;12.88;64.98;100957.73;106067;1281;74904;-86
2022/05/28 09:00:39;;;;;;;4.30;0.80;;;;;;;12.99;65.02;100955.59;105680;1280;71363;-86
2022/05/28 09:03:13;;;;;;;6.40;1.10;;;;;;;13.10;64.25;100952.15;105933;1280;73012;-85
2022/05/28 09:06:04;;;;;;;6.40;1.30;;;;;;;13.27;63.91;100956.98;105588;1281;62116;-85
2022/05/28 09:08:38;;;;;;;7.30;1.30;;;;;;;13.40;62.62;100973.36;106920;1279;61156;-85
2022/05/28 09:11:19;;;;;;;4.80;1.10;;;;;;;13.55;62.72;100965.97;106061;1281;75159;-85
2022/05/28 09:13:49;;;;;;;9.40;2.50;;;;;;;13.66;62.25;100964.09;105928;1280;71188;-84
2022/05/28 09:16:28;;;;;;;6.90;1.20;;;;;;;13.71;61.03;100975.00;106977;1279;73016;-85
2022/05/28 09:19:03;;;;;;;3.20;1.20;;;;;;;13.74;60.13;100963.77;107039;1280;61134;-87
2022/05/28 09:21:30;;;;;;;5.20;1.20;;;;;;;13.70;62.00;100960.44;107180;1279;61804;-85
2022/05/28 09:24:02;;;;;;;8.00;1.50;;;;;;;13.72;62.60;100968.63;107115;1279;75103;-84
2022/05/28 09:26:43;;;;;;;2.60;1.10;;;;;;;13.78;62.18;100970.61;107219;1279;71242;-85
2022/05/28 09:29:30;;;;;;;4.40;1.00;;;;;;;13.84;61.35;100963.17;107655;1279;74035;-84
2022/05/28 09:32:02;;;;;;;4.80;0.80;;;;;;;13.85;61.11;100960.56;106640;1282;304769;-85
2022/05/28 09:34:35;;;;;;;4.90;1.20;;;;;;;13.65;61.98;100970.27;107250;1279;60596;-86
2022/05/28 09:37:30;;;;;;;3.60;1.10;;;;;;;13.33;64.46;100990.91;106990;1279;75096;-85
2022/05/28 09:40:04;;;;;;;4.00;0.90;;;;;;;12.87;65.26;100999.16;106118;1279;71397;-86
2022/05/28 09:42:48;;;;;;;4.00;1.00;;;;;;;12.54;64.68;100996.27;106201;1279;73753;-85
2022/05/28 09:45:26;;;;;;;4.20;1.00;;;;;;;12.27;65.64;100993.89;107001;1279;61414;-85
2022/05/28 09:47:54;;;;;;;5.20;0.90;;;;;;;12.06;66.41;100985.90;107446;1279;61249;-85
2022/05/28 09:50:27;;;;;;;3.40;0.90;;;;;;;11.88;65.85;100984.79;106128;1279;75019;-86
2022/05/28 09:56:36;;;;;;;3.30;1.10;;;;;;;12.02;68.36;100983.02;105998;1280;73866;-86
2022/05/28 09:59:22;;;;;;;5.00;1.10;;;;;;;12.30;68.85;100980.27;107223;1279;61353;-85
2022/05/28 10:01:55;;;;;;;3.50;1.00;;;;;;;12.64;68.49;100973.80;107394;1279;60110;-85
2022/05/28 10:04:28;;;;;;;2.80;1.10;;;;;;;13.02;67.10;100974.11;107157;1280;76199;-84
2022/05/28 10:07:01;;;;;;;7.80;1.60;;;;;;;13.35;66.61;100968.89;106184;1279;71444;-85
2022/05/28 10:09:31;;;;;;;2.80;0.80;;;;;;;13.35;62.29;100976.40;105739;1279;72924;-85
2022/05/28 10:12:22;;;;;;;3.70;1.00;;;;;;;13.38;61.06;100973.86;106124;1280;61312;-86
2022/05/28 10:15:14;;;;;;;4.40;1.00;;;;;;;13.35;61.27;100976.90;105964;1280;61273;-85
2022/05/28 10:17:53;;;;;;;4.00;1.10;;;;;;;13.49;61.84;100975.88;105850;1279;75456;-85
2022/05/28 10:20:21;;;;;;;5.60;1.20;;;;;;;13.70;61.97;100979.16;105660;1281;71522;-84
2022/05/28 10:22:51;;;;;;;6.80;1.10;;;;;;;13.93;63.43;100972.33;105581;1280;74085;-85
2022/05/28 10:25:41;;;;;;;5.80;2.20;;;;;;;14.20;63.96;100972.63;105695;1280;60319;-85
2022/05/28 10:28:10;;;;;;;6.40;1.50;;;;;;;14.25;63.43;100984.61;105738;1280;61824;-85
2022/05/28 10:30:40;;;;;;;5.00;0.90;;;;;;;14.14;64.49;100974.95;105897;1279;77529;-84
2022/05/28 10:33:12;;;;;;;3.20;1.00;;;;;;;13.98;61.59;100991.71;105968;1279;73196;-84
2022/05/28 10:35:39;;;;;;;3.80;1.00;;;;;;;13.77;59.50;100973.12;105819;1279;72962;-84
2022/05/28 10:38:23;;;;;;;2.90;1.40;;;;;;;13.71;61.30;100971.97;105856;1279;61433;-87
2022/05/28 10:40:59;;;;;;;4.00;1.10;;;;;;;13.76;61.24;100973.99;105794;1281;61669;-85
2022/05/28 10:43:36;;;;;;;1.40;0.40;;;;;;;13.99;61.96;100978.41;105720;1281;76372;-85
2022/05/28 10:46:33;;;;;;;4.90;1.10;;;;;;;14.14;62.02;100990.69;105505;1281;72496;-85
2022/05/28 10:49:30;;;;;;;4.90;0.80;;;;;;;14.15;61.36;100994.30;105914;1279;72377;-84
2022/05/28 10:52:31;;;;;;;4.50;1.10;;;;;;;14.28;61.68;100992.60;105876;1279;61323;-85
2022/05/28 10:55:26;;;;;;;2.30;0.50;;;;;;;14.22;63.16;100990.20;105632;1281;61321;-84
2022/05/28 10:58:07;;;;;;;;;;;;;;;14.01;59.58;101006.45;105718;1279;76604;-85
2022/05/28 11:00:55;;;;;;;3.50;0.90;;;;;;;13.94;58.47;100991.91;106400;1279;72434;-85
2022/05/28 11:03:42;;;;;;;4.60;1.70;;;;;;;13.84;59.66;100973.67;106072;1280;74387;-85
2022/05/28 11:06:45;;;;;;;4.00;1.00;;;;;;;13.88;60.58;100981.27;106153;1280;61248;-85
2022/05/28 11:09:40;;;;;;;6.40;1.30;;;;;;;14.12;60.75;100970.95;106160;1279;60579;-84
2022/05/28 11:12:31;;;;;;;5.20;1.20;;;;;;;14.22;59.44;100982.86;106128;1279;76209;-86
2022/05/28 11:15:08;;;;;;;4.30;1.10;;;;;;;14.19;59.86;100985.55;106096;1279;73194;-86
2022/05/28 11:17:48;;;;;;;3.60;0.90;;;;;;;13.98;58.91;101001.65;105817;1281;73077;-86
2022/05/28 11:20:19;;;;;;;2.40;1.20;;;;;;;13.79;59.46;100992.52;105825;1279;61357;-86
2022/05/28 11:22:54;;;;;;;2.80;0.70;;;;;;;13.72;60.30;100973.50;106064;1279;61298;-87
2022/05/28 11:25:34;;;;;;;3.50;0.80;;;;;;;13.65;59.59;100969.70;106046;1279;74975;-85
2022/05/28 11:28:14;;;;;;;4.60;1.00;;;;;;;13.83;58.25;100966.43;106023;1279;71493;-86
2022/05/28 11:30:46;;;;;;;3.70;0.80;;;;;;;13.90;57.10;100960.23;105946;1279;71685;-84
2022/05/28 11:33:34;;;;;;;5.60;1.20;;;;;;;13.94;57.37;100958.17;105938;1278;61315;-85
2022/05/28 11:36:06;;;;;;;6.40;0.90;;;;;;;14.10;56.29;100952.41;106181;1279;61676;-85
2022/05/28 11:38:41;;;;;;;6.40;1.50;;;;;;;14.26;55.37;100946.15;106268;1281;76496;-84
2022/05/28 11:41:17;;;;;;;2.80;0.70;;;;;;;14.49;54.78;100938.37;106141;1279;71427;-84
2022/05/28 11:44:15;;;;;;;6.80;1.20;;;;;;;14.78;54.82;100935.65;106222;1279;72687;-84
2022/05/28 11:47:21;;;;;;;4.10;1.00;;;;;;;15.05;53.17;100935.34;105908;1280;63148;-85
2022/05/28 11:53:15;;;;;;;8.10;1.70;;;;;;;15.50;51.05;100933.86;106184;1279;74176;-84